sensor_id;sensor_type;location;lat;lon;timestamp;P1;durP1;ratioP1;P2;durP2;ratioP2
15307;SDS011;7755;52.208;6.964;2023-03-19T00:00:14;22.93;;;20.53;;
15307;SDS011;7755;52.208;6.964;2023-03-19T00:04:18;19.90;;;17.87;;
15307;SDS011;7755;52.208;6.964;2023-03-19T00:08:21;21.17;;;19.07;;
15307;SDS011;7755;52.208;6.964;2023-03-19T00:12:26;20.07;;;18.00;;
15307;SDS011;7755;52.208;6.964;2023-03-19T00:16:29;24.77;;;22.17;;
15307;SDS011;7755;52.208;6.964;2023-03-19T00:20:34;24.40;;;21.90;;
15307;SDS011;7755;52.208;6.964;2023-03-19T00:24:37;19.10;;;17.20;;
15307;SDS011;7755;52.208;6.964;2023-03-19T00:28:42;22.10;;;19.90;;
15307;SDS011;7755;52.208;6.964;2023-03-19T00:32:45;23.60;;;20.77;;
15307;SDS011;7755;52.208;6.964;2023-03-19T00:36:48;21.33;;;19.13;;
15307;SDS011;7755;52.208;6.964;2023-03-19T00:40:52;20.27;;;18.13;;
15307;SDS011;7755;52.208;6.964;2023-03-19T00:44:57;19.93;;;17.83;;
15307;SDS011;7755;52.208;6.964;2023-03-19T00:49:00;18.03;;;16.30;;
15307;SDS011;7755;52.208;6.964;2023-03-19T00:53:03;18.23;;;16.40;;
15307;SDS011;7755;52.208;6.964;2023-03-19T00:57:06;16.20;;;14.67;;
15307;SDS011;7755;52.208;6.964;2023-03-19T01:01:12;14.03;;;12.70;;
15307;SDS011;7755;52.208;6.964;2023-03-19T01:05:17;15.83;;;13.40;;
15307;SDS011;7755;52.208;6.964;2023-03-19T01:09:20;13.37;;;12.17;;
15307;SDS011;7755;52.208;6.964;2023-03-19T01:13:23;12.30;;;11.20;;
15307;SDS011;7755;52.208;6.964;2023-03-19T01:17:28;14.10;;;11.23;;
15307;SDS011;7755;52.208;6.964;2023-03-19T01:21:31;8.57;;;7.87;;
15307;SDS011;7755;52.208;6.964;2023-03-19T01:25:37;7.33;;;6.73;;
15307;SDS011;7755;52.208;6.964;2023-03-19T01:29:41;7.27;;;6.67;;
15307;SDS011;7755;52.208;6.964;2023-03-19T01:33:52;6.73;;;6.23;;
15307;SDS011;7755;52.208;6.964;2023-03-19T01:38:14;7.07;;;6.47;;
15307;SDS011;7755;52.208;6.964;2023-03-19T01:42:21;8.97;;;8.17;;
15307;SDS011;7755;52.208;6.964;2023-03-19T01:46:48;7.87;;;7.27;;
15307;SDS011;7755;52.208;6.964;2023-03-19T01:51:31;8.70;;;8.00;;
15307;SDS011;7755;52.208;6.964;2023-03-19T01:55:47;8.03;;;7.33;;
15307;SDS011;7755;52.208;6.964;2023-03-19T02:00:02;8.20;;;7.60;;
15307;SDS011;7755;52.208;6.964;2023-03-19T02:04:17;6.00;;;5.50;;
15307;SDS011;7755;52.208;6.964;2023-03-19T02:08:22;7.80;;;6.87;;
15307;SDS011;7755;52.208;6.964;2023-03-19T02:12:26;7.17;;;6.50;;
15307;SDS011;7755;52.208;6.964;2023-03-19T02:16:29;8.83;;;7.97;;
15307;SDS011;7755;52.208;6.964;2023-03-19T02:20:33;8.00;;;7.30;;
15307;SDS011;7755;52.208;6.964;2023-03-19T02:24:49;8.10;;;7.50;;
15307;SDS011;7755;52.208;6.964;2023-03-19T02:28:57;10.03;;;9.10;;
15307;SDS011;7755;52.208;6.964;2023-03-19T02:33:08;8.00;;;7.30;;
15307;SDS011;7755;52.208;6.964;2023-03-19T02:37:14;9.23;;;8.43;;
15307;SDS011;7755;52.208;6.964;2023-03-19T02:41:20;9.57;;;8.83;;
15307;SDS011;7755;52.208;6.964;2023-03-19T02:45:27;10.63;;;9.73;;
15307;SDS011;7755;52.208;6.964;2023-03-19T02:49:30;9.70;;;8.90;;
15307;SDS011;7755;52.208;6.964;2023-03-19T02:53:34;10.87;;;9.97;;
15307;SDS011;7755;52.208;6.964;2023-03-19T02:57:37;11.77;;;10.77;;
15307;SDS011;7755;52.208;6.964;2023-03-19T03:01:41;10.47;;;9.67;;
15307;SDS011;7755;52.208;6.964;2023-03-19T03:05:45;10.10;;;9.20;;
15307;SDS011;7755;52.208;6.964;2023-03-19T03:09:48;8.53;;;7.77;;
15307;SDS011;7755;52.208;6.964;2023-03-19T03:13:51;10.07;;;9.17;;
15307;SDS011;7755;52.208;6.964;2023-03-19T03:17:56;12.07;;;10.93;;
15307;SDS011;7755;52.208;6.964;2023-03-19T03:21:59;12.07;;;11.13;;
15307;SDS011;7755;52.208;6.964;2023-03-19T03:26:02;12.40;;;11.17;;
15307;SDS011;7755;52.208;6.964;2023-03-19T03:30:07;12.37;;;11.17;;
15307;SDS011;7755;52.208;6.964;2023-03-19T03:34:13;14.40;;;13.10;;
15307;SDS011;7755;52.208;6.964;2023-03-19T03:38:16;12.37;;;11.33;;
15307;SDS011;7755;52.208;6.964;2023-03-19T03:42:19;11.70;;;10.70;;
15307;SDS011;7755;52.208;6.964;2023-03-19T03:46:23;12.67;;;11.63;;
15307;SDS011;7755;52.208;6.964;2023-03-19T03:50:28;13.27;;;12.07;;
15307;SDS011;7755;52.208;6.964;2023-03-19T03:54:36;10.90;;;9.90;;
15307;SDS011;7755;52.208;6.964;2023-03-19T03:58:39;11.13;;;10.23;;
15307;SDS011;7755;52.208;6.964;2023-03-19T04:02:42;10.67;;;9.87;;
15307;SDS011;7755;52.208;6.964;2023-03-19T04:06:50;11.07;;;10.20;;
15307;SDS011;7755;52.208;6.964;2023-03-19T04:11:05;11.87;;;10.77;;
15307;SDS011;7755;52.208;6.964;2023-03-19T04:15:10;11.73;;;10.37;;
15307;SDS011;7755;52.208;6.964;2023-03-19T04:19:16;10.87;;;9.93;;
15307;SDS011;7755;52.208;6.964;2023-03-19T04:23:21;10.03;;;9.20;;
15307;SDS011;7755;52.208;6.964;2023-03-19T04:27:24;12.07;;;10.80;;
15307;SDS011;7755;52.208;6.964;2023-03-19T04:31:27;11.93;;;10.70;;
15307;SDS011;7755;52.208;6.964;2023-03-19T04:35:31;11.47;;;10.47;;
15307;SDS011;7755;52.208;6.964;2023-03-19T04:39:37;12.10;;;10.87;;
15307;SDS011;7755;52.208;6.964;2023-03-19T04:43:40;10.97;;;10.17;;
15307;SDS011;7755;52.208;6.964;2023-03-19T04:47:44;12.10;;;11.07;;
15307;SDS011;7755;52.208;6.964;2023-03-19T04:51:47;15.13;;;13.77;;
15307;SDS011;7755;52.208;6.964;2023-03-19T04:55:51;12.60;;;11.50;;
15307;SDS011;7755;52.208;6.964;2023-03-19T04:59:54;13.03;;;11.90;;
15307;SDS011;7755;52.208;6.964;2023-03-19T05:03:58;12.47;;;11.37;;
15307;SDS011;7755;52.208;6.964;2023-03-19T05:08:01;13.77;;;12.57;;
15307;SDS011;7755;52.208;6.964;2023-03-19T05:12:06;13.70;;;12.50;;
15307;SDS011;7755;52.208;6.964;2023-03-19T05:16:16;12.73;;;11.63;;
15307;SDS011;7755;52.208;6.964;2023-03-19T05:20:19;13.30;;;12.17;;
15307;SDS011;7755;52.208;6.964;2023-03-19T05:24:28;12.80;;;11.67;;
15307;SDS011;7755;52.208;6.964;2023-03-19T05:28:34;12.20;;;10.97;;
15307;SDS011;7755;52.208;6.964;2023-03-19T05:32:38;14.23;;;12.70;;
15307;SDS011;7755;52.208;6.964;2023-03-19T05:36:47;14.97;;;13.63;;
15307;SDS011;7755;52.208;6.964;2023-03-19T05:40:52;12.97;;;11.77;;
15307;SDS011;7755;52.208;6.964;2023-03-19T05:45:04;12.10;;;11.10;;
15307;SDS011;7755;52.208;6.964;2023-03-19T05:49:18;13.90;;;12.70;;
15307;SDS011;7755;52.208;6.964;2023-03-19T05:53:22;13.50;;;12.30;;
15307;SDS011;7755;52.208;6.964;2023-03-19T05:57:48;14.77;;;13.37;;
15307;SDS011;7755;52.208;6.964;2023-03-19T06:02:00;15.40;;;13.93;;
15307;SDS011;7755;52.208;6.964;2023-03-19T06:06:05;16.17;;;14.70;;
15307;SDS011;7755;52.208;6.964;2023-03-19T06:10:14;15.87;;;14.40;;
15307;SDS011;7755;52.208;6.964;2023-03-19T06:14:21;15.03;;;13.73;;
15307;SDS011;7755;52.208;6.964;2023-03-19T06:18:47;14.60;;;13.03;;
15307;SDS011;7755;52.208;6.964;2023-03-19T06:22:50;13.43;;;12.07;;
15307;SDS011;7755;52.208;6.964;2023-03-19T06:26:55;14.50;;;12.67;;
15307;SDS011;7755;52.208;6.964;2023-03-19T06:30:59;13.80;;;12.40;;
15307;SDS011;7755;52.208;6.964;2023-03-19T06:35:26;15.03;;;13.43;;
15307;SDS011;7755;52.208;6.964;2023-03-19T06:39:30;12.87;;;11.47;;
15307;SDS011;7755;52.208;6.964;2023-03-19T06:43:33;13.53;;;12.13;;
15307;SDS011;7755;52.208;6.964;2023-03-19T06:47:39;13.60;;;12.30;;
15307;SDS011;7755;52.208;6.964;2023-03-19T06:51:43;14.07;;;12.67;;
15307;SDS011;7755;52.208;6.964;2023-03-19T06:55:47;15.27;;;13.50;;
15307;SDS011;7755;52.208;6.964;2023-03-19T06:59:50;13.43;;;12.03;;
15307;SDS011;7755;52.208;6.964;2023-03-19T07:03:53;15.53;;;13.93;;
15307;SDS011;7755;52.208;6.964;2023-03-19T07:07:59;12.43;;;11.23;;
15307;SDS011;7755;52.208;6.964;2023-03-19T07:12:02;13.90;;;12.60;;
15307;SDS011;7755;52.208;6.964;2023-03-19T07:16:07;11.70;;;10.60;;
15307;SDS011;7755;52.208;6.964;2023-03-19T07:20:10;12.23;;;10.90;;
15307;SDS011;7755;52.208;6.964;2023-03-19T07:24:15;13.07;;;11.73;;
15307;SDS011;7755;52.208;6.964;2023-03-19T07:28:18;12.27;;;11.07;;
15307;SDS011;7755;52.208;6.964;2023-03-19T07:32:22;14.17;;;12.60;;
15307;SDS011;7755;52.208;6.964;2023-03-19T07:36:25;12.90;;;11.60;;
15307;SDS011;7755;52.208;6.964;2023-03-19T07:40:29;14.67;;;12.80;;
15307;SDS011;7755;52.208;6.964;2023-03-19T07:44:33;14.00;;;12.67;;
15307;SDS011;7755;52.208;6.964;2023-03-19T07:48:36;13.97;;;12.37;;
15307;SDS011;7755;52.208;6.964;2023-03-19T07:52:39;14.37;;;12.90;;
15307;SDS011;7755;52.208;6.964;2023-03-19T07:56:43;16.00;;;13.87;;
15307;SDS011;7755;52.208;6.964;2023-03-19T08:00:46;14.53;;;12.93;;
15307;SDS011;7755;52.208;6.964;2023-03-19T08:04:51;15.70;;;13.27;;
15307;SDS011;7755;52.208;6.964;2023-03-19T08:08:55;14.57;;;13.07;;
15307;SDS011;7755;52.208;6.964;2023-03-19T08:12:59;13.90;;;12.43;;
15307;SDS011;7755;52.208;6.964;2023-03-19T08:17:02;13.00;;;11.57;;
15307;SDS011;7755;52.208;6.964;2023-03-19T08:21:05;11.93;;;10.73;;
15307;SDS011;7755;52.208;6.964;2023-03-19T08:25:08;12.00;;;10.87;;
15307;SDS011;7755;52.208;6.964;2023-03-19T08:29:13;12.87;;;10.03;;
15307;SDS011;7755;52.208;6.964;2023-03-19T08:33:19;11.27;;;10.17;;
15307;SDS011;7755;52.208;6.964;2023-03-19T08:37:22;11.33;;;10.07;;
15307;SDS011;7755;52.208;6.964;2023-03-19T08:41:25;13.67;;;12.27;;
15307;SDS011;7755;52.208;6.964;2023-03-19T08:45:30;11.73;;;10.57;;
15307;SDS011;7755;52.208;6.964;2023-03-19T08:49:33;9.83;;;8.93;;
15307;SDS011;7755;52.208;6.964;2023-03-19T08:53:36;9.30;;;8.40;;
15307;SDS011;7755;52.208;6.964;2023-03-19T08:57:40;8.60;;;7.73;;
15307;SDS011;7755;52.208;6.964;2023-03-19T09:01:46;9.00;;;8.20;;
15307;SDS011;7755;52.208;6.964;2023-03-19T09:05:52;8.60;;;7.80;;
15307;SDS011;7755;52.208;6.964;2023-03-19T09:09:55;8.73;;;7.90;;
15307;SDS011;7755;52.208;6.964;2023-03-19T09:13:58;8.27;;;7.47;;
15307;SDS011;7755;52.208;6.964;2023-03-19T09:18:02;7.87;;;7.10;;
15307;SDS011;7755;52.208;6.964;2023-03-19T09:22:06;8.13;;;6.80;;
15307;SDS011;7755;52.208;6.964;2023-03-19T09:26:09;8.73;;;7.93;;
15307;SDS011;7755;52.208;6.964;2023-03-19T09:30:12;9.47;;;8.30;;
15307;SDS011;7755;52.208;6.964;2023-03-19T09:34:17;9.20;;;8.23;;
15307;SDS011;7755;52.208;6.964;2023-03-19T09:38:20;9.13;;;8.10;;
15307;SDS011;7755;52.208;6.964;2023-03-19T09:42:28;8.60;;;7.03;;
15307;SDS011;7755;52.208;6.964;2023-03-19T09:46:47;7.97;;;7.20;;
15307;SDS011;7755;52.208;6.964;2023-03-19T09:50:57;7.33;;;6.63;;
15307;SDS011;7755;52.208;6.964;2023-03-19T09:55:04;8.03;;;7.33;;
15307;SDS011;7755;52.208;6.964;2023-03-19T09:59:15;7.53;;;6.70;;
15307;SDS011;7755;52.208;6.964;2023-03-19T10:03:28;7.73;;;7.03;;
15307;SDS011;7755;52.208;6.964;2023-03-19T10:07:46;7.80;;;7.10;;
15307;SDS011;7755;52.208;6.964;2023-03-19T10:12:05;8.40;;;7.63;;
15307;SDS011;7755;52.208;6.964;2023-03-19T10:16:22;7.50;;;6.83;;
15307;SDS011;7755;52.208;6.964;2023-03-19T10:20:30;7.57;;;6.87;;
15307;SDS011;7755;52.208;6.964;2023-03-19T10:24:39;7.50;;;6.93;;
15307;SDS011;7755;52.208;6.964;2023-03-19T10:28:47;7.47;;;6.87;;
15307;SDS011;7755;52.208;6.964;2023-03-19T10:33:00;7.10;;;6.50;;
15307;SDS011;7755;52.208;6.964;2023-03-19T10:37:13;8.63;;;7.03;;
15307;SDS011;7755;52.208;6.964;2023-03-19T10:41:25;6.10;;;5.60;;
15307;SDS011;7755;52.208;6.964;2023-03-19T10:45:34;5.60;;;5.10;;
15307;SDS011;7755;52.208;6.964;2023-03-19T10:49:41;5.83;;;5.33;;
15307;SDS011;7755;52.208;6.964;2023-03-19T10:53:44;6.70;;;6.13;;
15307;SDS011;7755;52.208;6.964;2023-03-19T10:57:49;6.87;;;6.27;;
15307;SDS011;7755;52.208;6.964;2023-03-19T11:01:58;6.43;;;5.90;;
15307;SDS011;7755;52.208;6.964;2023-03-19T11:06:05;6.70;;;6.10;;
15307;SDS011;7755;52.208;6.964;2023-03-19T11:10:16;7.40;;;6.90;;
15307;SDS011;7755;52.208;6.964;2023-03-19T11:14:24;7.30;;;6.70;;
15307;SDS011;7755;52.208;6.964;2023-03-19T11:18:35;5.97;;;5.47;;
15307;SDS011;7755;52.208;6.964;2023-03-19T11:22:40;6.17;;;5.57;;
15307;SDS011;7755;52.208;6.964;2023-03-19T11:26:47;5.77;;;5.27;;
15307;SDS011;7755;52.208;6.964;2023-03-19T11:31:00;6.73;;;5.90;;
15307;SDS011;7755;52.208;6.964;2023-03-19T11:35:09;6.27;;;5.73;;
15307;SDS011;7755;52.208;6.964;2023-03-19T11:39:22;5.77;;;5.27;;
15307;SDS011;7755;52.208;6.964;2023-03-19T11:52:28;4.97;;;4.57;;
15307;SDS011;7755;52.208;6.964;2023-03-19T11:56:41;5.20;;;4.80;;
15307;SDS011;7755;52.208;6.964;2023-03-19T12:00:47;4.40;;;3.87;;
15307;SDS011;7755;52.208;6.964;2023-03-19T12:09:24;4.23;;;3.53;;
15307;SDS011;7755;52.208;6.964;2023-03-19T12:13:44;5.27;;;4.87;;
15307;SDS011;7755;52.208;6.964;2023-03-19T12:17:57;4.03;;;3.63;;
15307;SDS011;7755;52.208;6.964;2023-03-19T12:22:08;4.13;;;3.73;;
15307;SDS011;7755;52.208;6.964;2023-03-19T12:26:23;4.00;;;3.70;;
15307;SDS011;7755;52.208;6.964;2023-03-19T12:30:36;4.00;;;3.70;;
15307;SDS011;7755;52.208;6.964;2023-03-19T12:34:44;3.03;;;2.90;;
15307;SDS011;7755;52.208;6.964;2023-03-19T12:38:52;3.23;;;2.90;;
15307;SDS011;7755;52.208;6.964;2023-03-19T12:43:04;3.10;;;2.90;;
15307;SDS011;7755;52.208;6.964;2023-03-19T12:47:16;3.77;;;3.47;;
15307;SDS011;7755;52.208;6.964;2023-03-19T12:51:24;3.27;;;3.07;;
15307;SDS011;7755;52.208;6.964;2023-03-19T12:55:34;3.30;;;3.10;;
15307;SDS011;7755;52.208;6.964;2023-03-19T12:59:45;3.10;;;2.90;;
15307;SDS011;7755;52.208;6.964;2023-03-19T13:03:54;3.67;;;3.33;;
15307;SDS011;7755;52.208;6.964;2023-03-19T13:08:04;3.27;;;2.87;;
15307;SDS011;7755;52.208;6.964;2023-03-19T13:12:16;3.50;;;3.20;;
15307;SDS011;7755;52.208;6.964;2023-03-19T13:16:30;2.50;;;2.30;;
15307;SDS011;7755;52.208;6.964;2023-03-19T13:20:47;2.60;;;2.50;;
15307;SDS011;7755;52.208;6.964;2023-03-19T13:24:59;3.10;;;2.80;;
15307;SDS011;7755;52.208;6.964;2023-03-19T13:29:06;2.43;;;2.30;;
15307;SDS011;7755;52.208;6.964;2023-03-19T13:33:17;2.43;;;2.23;;
15307;SDS011;7755;52.208;6.964;2023-03-19T13:37:23;2.40;;;2.20;;
15307;SDS011;7755;52.208;6.964;2023-03-19T13:45:50;2.07;;;1.87;;
15307;SDS011;7755;52.208;6.964;2023-03-19T13:50:08;1.83;;;1.73;;
15307;SDS011;7755;52.208;6.964;2023-03-19T13:54:30;1.80;;;1.70;;
15307;SDS011;7755;52.208;6.964;2023-03-19T13:58:45;1.90;;;1.80;;
15307;SDS011;7755;52.208;6.964;2023-03-19T14:02:52;1.60;;;1.50;;
15307;SDS011;7755;52.208;6.964;2023-03-19T14:06:57;1.50;;;1.40;;
15307;SDS011;7755;52.208;6.964;2023-03-19T14:11:11;2.03;;;1.93;;
15307;SDS011;7755;52.208;6.964;2023-03-19T14:15:24;2.00;;;1.90;;
15307;SDS011;7755;52.208;6.964;2023-03-19T14:19:30;2.80;;;2.60;;
15307;SDS011;7755;52.208;6.964;2023-03-19T14:23:51;3.00;;;2.60;;
15307;SDS011;7755;52.208;6.964;2023-03-19T14:27:56;1.93;;;1.83;;
15307;SDS011;7755;52.208;6.964;2023-03-19T14:32:05;2.97;;;2.70;;
15307;SDS011;7755;52.208;6.964;2023-03-19T14:36:11;2.93;;;2.73;;
15307;SDS011;7755;52.208;6.964;2023-03-19T14:40:20;2.03;;;1.93;;
15307;SDS011;7755;52.208;6.964;2023-03-19T14:44:30;2.60;;;2.40;;
15307;SDS011;7755;52.208;6.964;2023-03-19T14:53:32;3.20;;;2.90;;
15307;SDS011;7755;52.208;6.964;2023-03-19T14:57:40;3.03;;;2.77;;
15307;SDS011;7755;52.208;6.964;2023-03-19T15:01:46;5.37;;;3.23;;
15307;SDS011;7755;52.208;6.964;2023-03-19T15:05:55;4.30;;;3.70;;
15307;SDS011;7755;52.208;6.964;2023-03-19T15:10:00;3.27;;;2.97;;
15307;SDS011;7755;52.208;6.964;2023-03-19T15:14:22;4.17;;;3.87;;
15307;SDS011;7755;52.208;6.964;2023-03-19T15:18:37;3.73;;;3.50;;
15307;SDS011;7755;52.208;6.964;2023-03-19T15:22:41;3.97;;;3.60;;
15307;SDS011;7755;52.208;6.964;2023-03-19T15:26:46;3.80;;;3.30;;
15307;SDS011;7755;52.208;6.964;2023-03-19T15:31:00;3.30;;;3.10;;
15307;SDS011;7755;52.208;6.964;2023-03-19T15:35:25;7.83;;;5.57;;
15307;SDS011;7755;52.208;6.964;2023-03-19T15:39:33;9.63;;;8.27;;
15307;SDS011;7755;52.208;6.964;2023-03-19T15:43:39;9.43;;;7.83;;
15307;SDS011;7755;52.208;6.964;2023-03-19T15:47:45;10.40;;;9.27;;
15307;SDS011;7755;52.208;6.964;2023-03-19T15:51:51;12.23;;;10.77;;
15307;SDS011;7755;52.208;6.964;2023-03-19T15:55:59;14.20;;;12.63;;
15307;SDS011;7755;52.208;6.964;2023-03-19T16:00:06;15.07;;;12.70;;
15307;SDS011;7755;52.208;6.964;2023-03-19T16:04:16;19.83;;;15.27;;
15307;SDS011;7755;52.208;6.964;2023-03-19T16:08:26;20.23;;;15.00;;
15307;SDS011;7755;52.208;6.964;2023-03-19T16:12:36;24.80;;;16.30;;
15307;SDS011;7755;52.208;6.964;2023-03-19T16:16:40;25.07;;;17.23;;
15307;SDS011;7755;52.208;6.964;2023-03-19T16:25:27;20.70;;;15.70;;
15307;SDS011;7755;52.208;6.964;2023-03-19T16:29:33;21.40;;;17.50;;
15307;SDS011;7755;52.208;6.964;2023-03-19T16:33:40;18.90;;;15.23;;
15307;SDS011;7755;52.208;6.964;2023-03-19T16:37:45;18.67;;;15.57;;
15307;SDS011;7755;52.208;6.964;2023-03-19T16:46:25;21.37;;;16.87;;
15307;SDS011;7755;52.208;6.964;2023-03-19T16:50:30;18.57;;;16.00;;
15307;SDS011;7755;52.208;6.964;2023-03-19T16:54:36;20.23;;;17.07;;
15307;SDS011;7755;52.208;6.964;2023-03-19T16:58:40;17.90;;;15.67;;
15307;SDS011;7755;52.208;6.964;2023-03-19T17:02:45;18.43;;;15.07;;
15307;SDS011;7755;52.208;6.964;2023-03-19T17:06:48;20.23;;;16.60;;
15307;SDS011;7755;52.208;6.964;2023-03-19T17:10:54;20.17;;;16.93;;
15307;SDS011;7755;52.208;6.964;2023-03-19T17:19:31;20.07;;;16.47;;
15307;SDS011;7755;52.208;6.964;2023-03-19T17:23:36;19.93;;;15.97;;
15307;SDS011;7755;52.208;6.964;2023-03-19T17:27:41;19.83;;;15.73;;
15307;SDS011;7755;52.208;6.964;2023-03-19T17:31:43;21.07;;;17.07;;
15307;SDS011;7755;52.208;6.964;2023-03-19T17:35:47;24.33;;;18.67;;
15307;SDS011;7755;52.208;6.964;2023-03-19T17:39:50;26.13;;;19.47;;
15307;SDS011;7755;52.208;6.964;2023-03-19T17:43:54;27.90;;;19.30;;
15307;SDS011;7755;52.208;6.964;2023-03-19T17:47:58;27.83;;;18.63;;
15307;SDS011;7755;52.208;6.964;2023-03-19T17:52:02;25.23;;;18.00;;
15307;SDS011;7755;52.208;6.964;2023-03-19T17:56:08;21.63;;;15.37;;
15307;SDS011;7755;52.208;6.964;2023-03-19T18:00:19;27.17;;;18.00;;
15307;SDS011;7755;52.208;6.964;2023-03-19T18:04:24;23.30;;;16.70;;
15307;SDS011;7755;52.208;6.964;2023-03-19T18:08:28;25.30;;;16.40;;
15307;SDS011;7755;52.208;6.964;2023-03-19T18:12:32;22.23;;;16.57;;
15307;SDS011;7755;52.208;6.964;2023-03-19T18:16:36;20.67;;;15.27;;
15307;SDS011;7755;52.208;6.964;2023-03-19T18:20:40;18.83;;;14.67;;
15307;SDS011;7755;52.208;6.964;2023-03-19T18:24:44;22.07;;;16.47;;
15307;SDS011;7755;52.208;6.964;2023-03-19T18:28:47;19.37;;;13.40;;
15307;SDS011;7755;52.208;6.964;2023-03-19T18:32:53;22.87;;;14.93;;
15307;SDS011;7755;52.208;6.964;2023-03-19T18:37:00;21.50;;;15.27;;
15307;SDS011;7755;52.208;6.964;2023-03-19T18:41:03;21.20;;;15.00;;
15307;SDS011;7755;52.208;6.964;2023-03-19T18:49:39;20.00;;;14.37;;
15307;SDS011;7755;52.208;6.964;2023-03-19T18:53:43;19.33;;;14.83;;
15307;SDS011;7755;52.208;6.964;2023-03-19T18:57:47;20.27;;;14.33;;
15307;SDS011;7755;52.208;6.964;2023-03-19T19:01:56;21.50;;;15.30;;
15307;SDS011;7755;52.208;6.964;2023-03-19T19:06:04;22.93;;;14.63;;
15307;SDS011;7755;52.208;6.964;2023-03-19T19:10:08;18.90;;;12.87;;
15307;SDS011;7755;52.208;6.964;2023-03-19T19:14:15;18.23;;;13.67;;
15307;SDS011;7755;52.208;6.964;2023-03-19T19:18:23;18.23;;;12.80;;
15307;SDS011;7755;52.208;6.964;2023-03-19T19:22:31;22.17;;;14.70;;
15307;SDS011;7755;52.208;6.964;2023-03-19T19:26:34;21.10;;;14.03;;
15307;SDS011;7755;52.208;6.964;2023-03-19T19:30:39;18.37;;;13.87;;
15307;SDS011;7755;52.208;6.964;2023-03-19T19:34:42;20.13;;;14.10;;
15307;SDS011;7755;52.208;6.964;2023-03-19T19:38:47;19.30;;;15.37;;
15307;SDS011;7755;52.208;6.964;2023-03-19T19:42:52;22.03;;;17.63;;
15307;SDS011;7755;52.208;6.964;2023-03-19T19:46:58;20.17;;;14.60;;
15307;SDS011;7755;52.208;6.964;2023-03-19T19:51:02;20.63;;;14.00;;
15307;SDS011;7755;52.208;6.964;2023-03-19T19:55:07;25.67;;;16.63;;
15307;SDS011;7755;52.208;6.964;2023-03-19T19:59:12;26.80;;;18.83;;
15307;SDS011;7755;52.208;6.964;2023-03-19T20:03:20;26.13;;;18.03;;
15307;SDS011;7755;52.208;6.964;2023-03-19T20:07:25;20.97;;;17.60;;
15307;SDS011;7755;52.208;6.964;2023-03-19T20:11:30;24.93;;;16.97;;
15307;SDS011;7755;52.208;6.964;2023-03-19T20:15:33;24.07;;;18.20;;
15307;SDS011;7755;52.208;6.964;2023-03-19T20:19:38;24.73;;;18.00;;
15307;SDS011;7755;52.208;6.964;2023-03-19T20:23:41;24.40;;;16.93;;
15307;SDS011;7755;52.208;6.964;2023-03-19T20:27:50;29.97;;;20.10;;
15307;SDS011;7755;52.208;6.964;2023-03-19T20:31:55;34.47;;;21.53;;
15307;SDS011;7755;52.208;6.964;2023-03-19T20:35:59;34.90;;;22.77;;
15307;SDS011;7755;52.208;6.964;2023-03-19T20:40:03;29.30;;;20.97;;
15307;SDS011;7755;52.208;6.964;2023-03-19T20:44:11;32.23;;;22.47;;
15307;SDS011;7755;52.208;6.964;2023-03-19T20:48:23;31.23;;;21.67;;
15307;SDS011;7755;52.208;6.964;2023-03-19T20:52:29;33.70;;;21.63;;
15307;SDS011;7755;52.208;6.964;2023-03-19T20:56:34;29.87;;;20.83;;
15307;SDS011;7755;52.208;6.964;2023-03-19T21:00:40;35.60;;;23.77;;
15307;SDS011;7755;52.208;6.964;2023-03-19T21:04:43;37.50;;;24.77;;
15307;SDS011;7755;52.208;6.964;2023-03-19T21:08:48;37.50;;;24.27;;
15307;SDS011;7755;52.208;6.964;2023-03-19T21:12:53;36.77;;;24.67;;
15307;SDS011;7755;52.208;6.964;2023-03-19T21:16:59;39.47;;;25.70;;
15307;SDS011;7755;52.208;6.964;2023-03-19T21:21:02;36.63;;;23.87;;
15307;SDS011;7755;52.208;6.964;2023-03-19T21:25:12;37.40;;;26.23;;
15307;SDS011;7755;52.208;6.964;2023-03-19T21:29:23;41.03;;;27.20;;
15307;SDS011;7755;52.208;6.964;2023-03-19T21:33:32;42.70;;;28.20;;
15307;SDS011;7755;52.208;6.964;2023-03-19T21:37:36;33.60;;;22.23;;
15307;SDS011;7755;52.208;6.964;2023-03-19T21:41:41;37.67;;;24.27;;
15307;SDS011;7755;52.208;6.964;2023-03-19T21:45:46;37.17;;;24.43;;
15307;SDS011;7755;52.208;6.964;2023-03-19T21:49:51;40.67;;;26.03;;
15307;SDS011;7755;52.208;6.964;2023-03-19T21:53:55;36.53;;;23.90;;
15307;SDS011;7755;52.208;6.964;2023-03-19T21:57:59;39.93;;;25.27;;
15307;SDS011;7755;52.208;6.964;2023-03-19T22:02:02;35.80;;;25.97;;
15307;SDS011;7755;52.208;6.964;2023-03-19T22:06:06;42.67;;;27.80;;
15307;SDS011;7755;52.208;6.964;2023-03-19T22:10:11;41.23;;;27.03;;
15307;SDS011;7755;52.208;6.964;2023-03-19T22:14:15;38.23;;;26.63;;
15307;SDS011;7755;52.208;6.964;2023-03-19T22:18:21;38.70;;;25.93;;
15307;SDS011;7755;52.208;6.964;2023-03-19T22:22:25;34.53;;;23.17;;
15307;SDS011;7755;52.208;6.964;2023-03-19T22:26:29;42.30;;;28.30;;
15307;SDS011;7755;52.208;6.964;2023-03-19T22:30:35;40.93;;;26.40;;
15307;SDS011;7755;52.208;6.964;2023-03-19T22:34:39;39.70;;;25.47;;
15307;SDS011;7755;52.208;6.964;2023-03-19T22:38:43;40.00;;;25.83;;
15307;SDS011;7755;52.208;6.964;2023-03-19T22:42:49;34.90;;;25.83;;
15307;SDS011;7755;52.208;6.964;2023-03-19T22:46:52;39.10;;;25.63;;
15307;SDS011;7755;52.208;6.964;2023-03-19T22:50:57;38.27;;;24.77;;
15307;SDS011;7755;52.208;6.964;2023-03-19T22:55:02;33.60;;;23.23;;
15307;SDS011;7755;52.208;6.964;2023-03-19T22:59:07;37.53;;;25.20;;
15307;SDS011;7755;52.208;6.964;2023-03-19T23:03:11;40.33;;;25.00;;
15307;SDS011;7755;52.208;6.964;2023-03-19T23:07:19;35.03;;;25.90;;
15307;SDS011;7755;52.208;6.964;2023-03-19T23:11:24;42.07;;;26.43;;
15307;SDS011;7755;52.208;6.964;2023-03-19T23:15:28;46.43;;;28.47;;
15307;SDS011;7755;52.208;6.964;2023-03-19T23:19:33;40.43;;;27.00;;
15307;SDS011;7755;52.208;6.964;2023-03-19T23:23:36;50.77;;;30.50;;
15307;SDS011;7755;52.208;6.964;2023-03-19T23:27:42;43.13;;;29.40;;
15307;SDS011;7755;52.208;6.964;2023-03-19T23:31:46;43.57;;;29.97;;
15307;SDS011;7755;52.208;6.964;2023-03-19T23:35:49;42.60;;;26.60;;
15307;SDS011;7755;52.208;6.964;2023-03-19T23:39:56;45.00;;;29.43;;
15307;SDS011;7755;52.208;6.964;2023-03-19T23:44:02;46.60;;;30.67;;
15307;SDS011;7755;52.208;6.964;2023-03-19T23:48:11;44.47;;;27.67;;
15307;SDS011;7755;52.208;6.964;2023-03-19T23:52:16;42.43;;;28.10;;
15307;SDS011;7755;52.208;6.964;2023-03-19T23:56:19;46.67;;;30.20;;
